sensor_id;sensor_type;location;lat;lon;timestamp;pressure;altitude;pressure_sealevel;temperature;humidity
48530;BME280;34927;37.302;-121.982;2023-02-13T00:00:52;100576.0;;;23.80;29.80
48530;BME280;34927;37.302;-121.982;2023-02-13T00:01:56;100575.0;;;23.86;29.81
48530;BME280;34927;37.302;-121.982;2023-02-13T00:03:02;100574.0;;;23.79;29.80
48530;BME280;34927;37.302;-121.982;2023-02-13T00:04:07;100575.0;;;23.79;29.89
48530;BME280;34927;37.302;-121.982;2023-02-13T00:05:11;100574.0;;;23.82;29.79
48530;BME280;34927;37.302;-121.982;2023-02-13T00:06:16;100573.0;;;23.76;29.98
48530;BME280;34927;37.302;-121.982;2023-02-13T00:07:21;100573.0;;;23.77;29.94
48530;BME280;34927;37.302;-121.982;2023-02-13T00:08:27;100573.0;;;23.84;29.83
48530;BME280;34927;37.302;-121.982;2023-02-13T00:09:32;100575.0;;;23.87;29.62
48530;BME280;34927;37.302;-121.982;2023-02-13T00:10:37;100578.0;;;23.86;29.85
48530;BME280;34927;37.302;-121.982;2023-02-13T00:11:42;100580.0;;;23.87;29.64
48530;BME280;34927;37.302;-121.982;2023-02-13T00:12:46;100580.0;;;23.92;29.73
48530;BME280;34927;37.302;-121.982;2023-02-13T00:13:52;100582.0;;;23.90;29.80
48530;BME280;34927;37.302;-121.982;2023-02-13T00:14:56;100580.0;;;24.01;29.52
48530;BME280;34927;37.302;-121.982;2023-02-13T00:16:03;100577.0;;;23.98;29.49
48530;BME280;34927;37.302;-121.982;2023-02-13T00:17:06;100582.0;;;23.94;29.64
48530;BME280;34927;37.302;-121.982;2023-02-13T00:18:11;100583.0;;;23.99;29.69
48530;BME280;34927;37.302;-121.982;2023-02-13T00:19:17;100583.0;;;24.04;29.61
48530;BME280;34927;37.302;-121.982;2023-02-13T00:20:21;100585.0;;;24.10;29.44
48530;BME280;34927;37.302;-121.982;2023-02-13T00:21:26;100583.0;;;23.98;29.68
48530;BME280;34927;37.302;-121.982;2023-02-13T00:22:35;100582.0;;;24.06;29.72
48530;BME280;34927;37.302;-121.982;2023-02-13T00:23:42;100583.0;;;24.12;29.47
48530;BME280;34927;37.302;-121.982;2023-02-13T00:24:46;100583.0;;;24.07;29.75
48530;BME280;34927;37.302;-121.982;2023-02-13T00:25:51;100585.0;;;24.15;29.50
48530;BME280;34927;37.302;-121.982;2023-02-13T00:26:57;100585.0;;;24.12;29.67
48530;BME280;34927;37.302;-121.982;2023-02-13T00:28:02;100584.0;;;24.15;29.62
48530;BME280;34927;37.302;-121.982;2023-02-13T00:29:07;100584.0;;;24.18;29.42
48530;BME280;34927;37.302;-121.982;2023-02-13T00:30:12;100583.0;;;24.14;29.55
48530;BME280;34927;37.302;-121.982;2023-02-13T00:31:19;100581.0;;;24.11;29.71
48530;BME280;34927;37.302;-121.982;2023-02-13T00:32:22;100585.0;;;24.13;29.67
48530;BME280;34927;37.302;-121.982;2023-02-13T00:33:26;100584.0;;;24.05;29.72
48530;BME280;34927;37.302;-121.982;2023-02-13T00:34:31;100584.0;;;24.17;29.53
48530;BME280;34927;37.302;-121.982;2023-02-13T00:35:36;100586.0;;;24.15;29.37
48530;BME280;34927;37.302;-121.982;2023-02-13T00:36:42;100587.0;;;24.13;29.49
48530;BME280;34927;37.302;-121.982;2023-02-13T00:37:46;100591.0;;;24.11;29.67
48530;BME280;34927;37.302;-121.982;2023-02-13T00:38:53;100591.0;;;24.13;29.47
48530;BME280;34927;37.302;-121.982;2023-02-13T00:39:57;100590.0;;;24.08;29.52
48530;BME280;34927;37.302;-121.982;2023-02-13T00:41:02;100591.0;;;24.11;29.54
48530;BME280;34927;37.302;-121.982;2023-02-13T00:42:06;100590.0;;;24.11;29.47
48530;BME280;34927;37.302;-121.982;2023-02-13T00:43:12;100589.0;;;24.07;29.57
48530;BME280;34927;37.302;-121.982;2023-02-13T00:44:17;100587.0;;;24.00;29.64
48530;BME280;34927;37.302;-121.982;2023-02-13T00:45:22;100587.0;;;24.05;29.62
48530;BME280;34927;37.302;-121.982;2023-02-13T00:46:26;100588.0;;;24.05;29.51
48530;BME280;34927;37.302;-121.982;2023-02-13T00:47:32;100589.0;;;24.01;29.59
48530;BME280;34927;37.302;-121.982;2023-02-13T00:48:37;100586.0;;;24.02;29.64
48530;BME280;34927;37.302;-121.982;2023-02-13T00:49:42;100584.0;;;24.03;29.58
48530;BME280;34927;37.302;-121.982;2023-02-13T00:50:47;100585.0;;;24.01;29.56
48530;BME280;34927;37.302;-121.982;2023-02-13T00:51:51;100581.0;;;23.99;29.61
48530;BME280;34927;37.302;-121.982;2023-02-13T00:52:56;100581.0;;;23.98;29.67
48530;BME280;34927;37.302;-121.982;2023-02-13T00:54:02;100580.0;;;23.99;29.66
48530;BME280;34927;37.302;-121.982;2023-02-13T00:55:07;100581.0;;;24.00;29.84
48530;BME280;34927;37.302;-121.982;2023-02-13T00:56:13;100581.0;;;24.08;29.78
48530;BME280;34927;37.302;-121.982;2023-02-13T00:57:16;100581.0;;;24.06;29.75
48530;BME280;34927;37.302;-121.982;2023-02-13T00:58:22;100580.0;;;24.08;29.77
48530;BME280;34927;37.302;-121.982;2023-02-13T00:59:27;100578.0;;;24.03;29.87
48530;BME280;34927;37.302;-121.982;2023-02-13T01:00:32;100579.0;;;23.98;30.70
48530;BME280;34927;37.302;-121.982;2023-02-13T01:01:36;100580.0;;;23.98;31.89
48530;BME280;34927;37.302;-121.982;2023-02-13T01:02:42;100581.0;;;24.02;32.86
48530;BME280;34927;37.302;-121.982;2023-02-13T01:03:47;100580.0;;;24.00;33.03
48530;BME280;34927;37.302;-121.982;2023-02-13T01:04:52;100580.0;;;23.99;33.20
48530;BME280;34927;37.302;-121.982;2023-02-13T01:05:57;100580.0;;;24.03;33.78
48530;BME280;34927;37.302;-121.982;2023-02-13T01:07:02;100582.0;;;24.03;34.29
48530;BME280;34927;37.302;-121.982;2023-02-13T01:08:07;100579.0;;;23.95;34.99
48530;BME280;34927;37.302;-121.982;2023-02-13T01:09:11;100581.0;;;23.87;34.73
48530;BME280;34927;37.302;-121.982;2023-02-13T01:10:17;100577.0;;;23.84;33.77
48530;BME280;34927;37.302;-121.982;2023-02-13T01:11:22;100579.0;;;23.79;32.63
48530;BME280;34927;37.302;-121.982;2023-02-13T01:12:27;100579.0;;;23.80;33.36
48530;BME280;34927;37.302;-121.982;2023-02-13T01:13:32;100578.0;;;23.78;32.98
48530;BME280;34927;37.302;-121.982;2023-02-13T01:14:37;100580.0;;;23.76;34.27
48530;BME280;34927;37.302;-121.982;2023-02-13T01:15:41;100578.0;;;23.73;34.43
48530;BME280;34927;37.302;-121.982;2023-02-13T01:16:47;100576.0;;;23.77;33.08
48530;BME280;34927;37.302;-121.982;2023-02-13T01:17:52;100578.0;;;23.72;34.55
48530;BME280;34927;37.302;-121.982;2023-02-13T01:18:57;100577.0;;;23.69;35.07
48530;BME280;34927;37.302;-121.982;2023-02-13T01:20:02;100574.0;;;23.67;33.54
48530;BME280;34927;37.302;-121.982;2023-02-13T01:21:11;100574.0;;;23.64;33.56
48530;BME280;34927;37.302;-121.982;2023-02-13T01:22:17;100574.0;;;23.62;33.72
48530;BME280;34927;37.302;-121.982;2023-02-13T01:23:21;100575.0;;;23.62;33.92
48530;BME280;34927;37.302;-121.982;2023-02-13T01:24:27;100577.0;;;23.58;34.79
48530;BME280;34927;37.302;-121.982;2023-02-13T01:25:32;100576.0;;;23.53;34.84
48530;BME280;34927;37.302;-121.982;2023-02-13T01:26:36;100578.0;;;23.58;35.19
48530;BME280;34927;37.302;-121.982;2023-02-13T01:27:41;100578.0;;;23.52;35.32
48530;BME280;34927;37.302;-121.982;2023-02-13T01:28:47;100579.0;;;23.56;35.41
48530;BME280;34927;37.302;-121.982;2023-02-13T01:29:52;100577.0;;;23.60;35.63
48530;BME280;34927;37.302;-121.982;2023-02-13T01:30:57;100578.0;;;23.56;36.09
48530;BME280;34927;37.302;-121.982;2023-02-13T01:32:02;100577.0;;;23.58;36.24
48530;BME280;34927;37.302;-121.982;2023-02-13T01:33:08;100575.0;;;23.53;36.63
48530;BME280;34927;37.302;-121.982;2023-02-13T01:34:11;100576.0;;;23.48;36.66
48530;BME280;34927;37.302;-121.982;2023-02-13T01:35:17;100575.0;;;23.48;36.77
48530;BME280;34927;37.302;-121.982;2023-02-13T01:36:22;100575.0;;;23.47;36.70
48530;BME280;34927;37.302;-121.982;2023-02-13T01:37:26;100574.0;;;23.42;36.76
48530;BME280;34927;37.302;-121.982;2023-02-13T01:38:32;100573.0;;;23.44;36.81
48530;BME280;34927;37.302;-121.982;2023-02-13T01:39:36;100572.0;;;23.59;36.49
48530;BME280;34927;37.302;-121.982;2023-02-13T01:40:45;100572.0;;;23.59;36.59
48530;BME280;34927;37.302;-121.982;2023-02-13T01:41:52;100574.0;;;23.57;37.16
48530;BME280;34927;37.302;-121.982;2023-02-13T01:42:57;100574.0;;;23.53;37.50
48530;BME280;34927;37.302;-121.982;2023-02-13T01:44:01;100576.0;;;23.50;37.40
48530;BME280;34927;37.302;-121.982;2023-02-13T01:45:21;100579.0;;;23.50;37.16
48530;BME280;34927;37.302;-121.982;2023-02-13T01:46:29;100577.0;;;23.56;37.06
48530;BME280;34927;37.302;-121.982;2023-02-13T01:47:40;100583.0;;;23.55;36.92
48530;BME280;34927;37.302;-121.982;2023-02-13T01:48:48;100585.0;;;23.57;37.15
48530;BME280;34927;37.302;-121.982;2023-02-13T01:49:59;100587.0;;;23.58;37.06
48530;BME280;34927;37.302;-121.982;2023-02-13T01:51:09;100589.0;;;23.58;37.03
48530;BME280;34927;37.302;-121.982;2023-02-13T01:52:17;100595.0;;;23.56;37.25
48530;BME280;34927;37.302;-121.982;2023-02-13T01:53:24;100595.0;;;23.54;37.31
48530;BME280;34927;37.302;-121.982;2023-02-13T01:54:33;100597.0;;;23.57;37.35
48530;BME280;34927;37.302;-121.982;2023-02-13T01:55:39;100600.0;;;23.55;36.94
48530;BME280;34927;37.302;-121.982;2023-02-13T01:56:48;100600.0;;;23.57;37.56
48530;BME280;34927;37.302;-121.982;2023-02-13T01:57:55;100604.0;;;23.50;37.20
48530;BME280;34927;37.302;-121.982;2023-02-13T01:59:05;100606.0;;;23.50;37.59
48530;BME280;34927;37.302;-121.982;2023-02-13T02:00:14;100607.0;;;23.51;37.47
48530;BME280;34927;37.302;-121.982;2023-02-13T02:01:17;100609.0;;;23.49;37.80
48530;BME280;34927;37.302;-121.982;2023-02-13T02:02:22;100610.0;;;23.49;37.99
48530;BME280;34927;37.302;-121.982;2023-02-13T02:03:30;100612.0;;;23.46;37.42
48530;BME280;34927;37.302;-121.982;2023-02-13T02:04:39;100609.0;;;23.50;38.80
48530;BME280;34927;37.302;-121.982;2023-02-13T02:05:47;100609.0;;;23.61;38.66
48530;BME280;34927;37.302;-121.982;2023-02-13T02:06:54;100608.0;;;23.79;37.90
48530;BME280;34927;37.302;-121.982;2023-02-13T02:08:05;100612.0;;;23.94;37.38
48530;BME280;34927;37.302;-121.982;2023-02-13T02:09:15;100615.0;;;23.88;37.88
48530;BME280;34927;37.302;-121.982;2023-02-13T02:10:22;100616.0;;;23.98;39.18
48530;BME280;34927;37.302;-121.982;2023-02-13T02:11:33;100617.0;;;24.08;40.93
48530;BME280;34927;37.302;-121.982;2023-02-13T02:12:42;100620.0;;;24.06;42.87
48530;BME280;34927;37.302;-121.982;2023-02-13T02:13:47;100619.0;;;23.98;43.04
48530;BME280;34927;37.302;-121.982;2023-02-13T02:14:54;100616.0;;;23.78;37.88
48530;BME280;34927;37.302;-121.982;2023-02-13T02:15:57;100616.0;;;23.78;38.55
48530;BME280;34927;37.302;-121.982;2023-02-13T02:17:01;100618.0;;;23.91;38.25
48530;BME280;34927;37.302;-121.982;2023-02-13T02:18:13;100623.0;;;24.08;37.92
48530;BME280;34927;37.302;-121.982;2023-02-13T02:19:25;100622.0;;;24.11;37.67
48530;BME280;34927;37.302;-121.982;2023-02-13T02:20:51;100622.0;;;24.13;37.51
48530;BME280;34927;37.302;-121.982;2023-02-13T02:22:18;100622.0;;;24.02;37.06
48530;BME280;34927;37.302;-121.982;2023-02-13T02:23:43;100623.0;;;23.88;36.79
48530;BME280;34927;37.302;-121.982;2023-02-13T02:25:13;100625.0;;;23.69;37.14
48530;BME280;34927;37.302;-121.982;2023-02-13T02:30:31;100634.0;;;23.35;33.46
48530;BME280;34927;37.302;-121.982;2023-02-13T02:32:02;100635.0;;;23.32;33.23
48530;BME280;34927;37.302;-121.982;2023-02-13T02:33:14;100633.0;;;23.20;32.70
48530;BME280;34927;37.302;-121.982;2023-02-13T02:34:29;100633.0;;;23.17;32.63
48530;BME280;34927;37.302;-121.982;2023-02-13T02:35:42;100630.0;;;23.15;32.05
48530;BME280;34927;37.302;-121.982;2023-02-13T02:37:03;100627.0;;;23.14;32.15
48530;BME280;34927;37.302;-121.982;2023-02-13T02:38:16;100628.0;;;22.97;32.39
48530;BME280;34927;37.302;-121.982;2023-02-13T02:39:31;100629.0;;;22.90;32.41
48530;BME280;34927;37.302;-121.982;2023-02-13T02:40:45;100629.0;;;22.75;32.51
48530;BME280;34927;37.302;-121.982;2023-02-13T02:42:00;100631.0;;;22.70;32.05
48530;BME280;34927;37.302;-121.982;2023-02-13T02:43:18;100629.0;;;22.63;32.52
48530;BME280;34927;37.302;-121.982;2023-02-13T02:44:34;100629.0;;;22.60;32.10
48530;BME280;34927;37.302;-121.982;2023-02-13T02:45:50;100628.0;;;22.55;32.19
48530;BME280;34927;37.302;-121.982;2023-02-13T02:47:04;100629.0;;;22.61;32.12
48530;BME280;34927;37.302;-121.982;2023-02-13T02:48:21;100632.0;;;22.55;32.24
48530;BME280;34927;37.302;-121.982;2023-02-13T02:49:27;100634.0;;;22.53;31.79
48530;BME280;34927;37.302;-121.982;2023-02-13T02:50:35;100637.0;;;22.45;31.86
48530;BME280;34927;37.302;-121.982;2023-02-13T02:51:49;100637.0;;;22.64;32.05
48530;BME280;34927;37.302;-121.982;2023-02-13T02:53:06;100634.0;;;22.76;32.44
48530;BME280;34927;37.302;-121.982;2023-02-13T02:54:18;100635.0;;;22.84;32.13
48530;BME280;34927;37.302;-121.982;2023-02-13T02:55:34;100633.0;;;22.79;32.71
48530;BME280;34927;37.302;-121.982;2023-02-13T02:56:43;100634.0;;;22.84;32.42
48530;BME280;34927;37.302;-121.982;2023-02-13T02:57:51;100635.0;;;22.78;32.56
48530;BME280;34927;37.302;-121.982;2023-02-13T02:59:05;100633.0;;;22.85;32.76
48530;BME280;34927;37.302;-121.982;2023-02-13T03:00:12;100635.0;;;22.81;32.63
48530;BME280;34927;37.302;-121.982;2023-02-13T03:01:20;100635.0;;;22.74;33.02
48530;BME280;34927;37.302;-121.982;2023-02-13T03:02:27;100628.0;;;22.74;33.01
48530;BME280;34927;37.302;-121.982;2023-02-13T03:03:33;100629.0;;;22.75;33.14
48530;BME280;34927;37.302;-121.982;2023-02-13T03:04:39;100628.0;;;22.62;33.26
48530;BME280;34927;37.302;-121.982;2023-02-13T03:05:47;100630.0;;;22.56;33.35
48530;BME280;34927;37.302;-121.982;2023-02-13T03:06:59;100629.0;;;22.69;33.28
48530;BME280;34927;37.302;-121.982;2023-02-13T03:08:06;100630.0;;;22.55;33.50
48530;BME280;34927;37.302;-121.982;2023-02-13T03:09:16;100628.0;;;22.43;33.85
48530;BME280;34927;37.302;-121.982;2023-02-13T03:10:28;100625.0;;;22.42;33.89
48530;BME280;34927;37.302;-121.982;2023-02-13T03:11:32;100624.0;;;22.41;33.98
48530;BME280;34927;37.302;-121.982;2023-02-13T03:12:40;100625.0;;;22.40;34.01
48530;BME280;34927;37.302;-121.982;2023-02-13T03:13:48;100624.0;;;22.36;34.03
48530;BME280;34927;37.302;-121.982;2023-02-13T03:14:52;100624.0;;;22.32;34.18
48530;BME280;34927;37.302;-121.982;2023-02-13T03:15:58;100624.0;;;22.18;34.42
48530;BME280;34927;37.302;-121.982;2023-02-13T03:17:03;100624.0;;;22.20;34.44
48530;BME280;34927;37.302;-121.982;2023-02-13T03:18:08;100626.0;;;22.25;34.39
48530;BME280;34927;37.302;-121.982;2023-02-13T03:19:14;100625.0;;;22.21;34.65
48530;BME280;34927;37.302;-121.982;2023-02-13T03:20:29;100624.0;;;22.24;34.51
48530;BME280;34927;37.302;-121.982;2023-02-13T03:21:48;100623.0;;;22.36;34.26
48530;BME280;34927;37.302;-121.982;2023-02-13T03:23:07;100622.0;;;22.42;34.07
48530;BME280;34927;37.302;-121.982;2023-02-13T03:24:23;100621.0;;;22.35;34.14
48530;BME280;34927;37.302;-121.982;2023-02-13T03:25:30;100620.0;;;22.33;34.13
48530;BME280;34927;37.302;-121.982;2023-02-13T03:26:41;100619.0;;;22.37;34.06
48530;BME280;34927;37.302;-121.982;2023-02-13T03:27:57;100617.0;;;22.39;33.99
48530;BME280;34927;37.302;-121.982;2023-02-13T03:29:09;100614.0;;;22.43;33.90
48530;BME280;34927;37.302;-121.982;2023-02-13T03:30:24;100612.0;;;22.41;33.92
48530;BME280;34927;37.302;-121.982;2023-02-13T03:31:35;100611.0;;;22.46;33.79
48530;BME280;34927;37.302;-121.982;2023-02-13T03:32:48;100612.0;;;22.36;33.96
48530;BME280;34927;37.302;-121.982;2023-02-13T03:33:59;100610.0;;;22.22;34.17
48530;BME280;34927;37.302;-121.982;2023-02-13T03:36:30;100614.0;;;22.28;34.09
48530;BME280;34927;37.302;-121.982;2023-02-13T03:37:39;100615.0;;;22.30;34.40
48530;BME280;34927;37.302;-121.982;2023-02-13T03:38:52;100615.0;;;22.14;35.00
48530;BME280;34927;37.302;-121.982;2023-02-13T03:40:03;100619.0;;;21.98;35.33
48530;BME280;34927;37.302;-121.982;2023-02-13T03:41:12;100620.0;;;21.99;35.50
48530;BME280;34927;37.302;-121.982;2023-02-13T03:42:22;100619.0;;;22.02;35.29
48530;BME280;34927;37.302;-121.982;2023-02-13T03:43:30;100620.0;;;21.94;35.74
48530;BME280;34927;37.302;-121.982;2023-02-13T03:44:40;100619.0;;;21.98;35.79
48530;BME280;34927;37.302;-121.982;2023-02-13T03:45:47;100617.0;;;21.93;35.69
48530;BME280;34927;37.302;-121.982;2023-02-13T03:46:53;100616.0;;;21.94;35.67
48530;BME280;34927;37.302;-121.982;2023-02-13T03:48:03;100615.0;;;21.92;35.81
48530;BME280;34927;37.302;-121.982;2023-02-13T03:49:09;100615.0;;;21.83;35.93
48530;BME280;34927;37.302;-121.982;2023-02-13T03:50:18;100613.0;;;21.85;35.90
48530;BME280;34927;37.302;-121.982;2023-02-13T03:51:26;100608.0;;;21.85;36.21
48530;BME280;34927;37.302;-121.982;2023-02-13T03:52:37;100605.0;;;21.86;36.18
48530;BME280;34927;37.302;-121.982;2023-02-13T03:55:06;100599.0;;;21.97;35.88
48530;BME280;34927;37.302;-121.982;2023-02-13T03:56:14;100602.0;;;21.86;36.01
48530;BME280;34927;37.302;-121.982;2023-02-13T03:57:22;100603.0;;;21.85;36.16
48530;BME280;34927;37.302;-121.982;2023-02-13T03:58:29;100600.0;;;21.78;36.15
48530;BME280;34927;37.302;-121.982;2023-02-13T03:59:37;100600.0;;;21.83;36.04
48530;BME280;34927;37.302;-121.982;2023-02-13T04:00:45;100602.0;;;21.82;35.94
48530;BME280;34927;37.302;-121.982;2023-02-13T04:01:59;100603.0;;;21.77;35.95
48530;BME280;34927;37.302;-121.982;2023-02-13T04:03:12;100603.0;;;21.79;35.85
48530;BME280;34927;37.302;-121.982;2023-02-13T04:04:22;100603.0;;;21.84;35.74
48530;BME280;34927;37.302;-121.982;2023-02-13T04:05:38;100602.0;;;21.92;35.58
48530;BME280;34927;37.302;-121.982;2023-02-13T04:06:47;100604.0;;;21.86;35.54
48530;BME280;34927;37.302;-121.982;2023-02-13T04:07:52;100607.0;;;21.90;35.49
48530;BME280;34927;37.302;-121.982;2023-02-13T04:08:57;100605.0;;;21.93;35.39
48530;BME280;34927;37.302;-121.982;2023-02-13T04:10:04;100606.0;;;21.87;35.39
48530;BME280;34927;37.302;-121.982;2023-02-13T04:11:15;100607.0;;;21.95;35.30
48530;BME280;34927;37.302;-121.982;2023-02-13T04:12:26;100604.0;;;21.79;35.48
48530;BME280;34927;37.302;-121.982;2023-02-13T04:13:42;100604.0;;;21.76;35.50
48530;BME280;34927;37.302;-121.982;2023-02-13T04:14:52;100603.0;;;21.77;35.42
48530;BME280;34927;37.302;-121.982;2023-02-13T04:16:05;100605.0;;;21.82;35.38
48530;BME280;34927;37.302;-121.982;2023-02-13T04:17:17;100603.0;;;21.76;35.35
48530;BME280;34927;37.302;-121.982;2023-02-13T04:18:29;100602.0;;;21.75;35.41
48530;BME280;34927;37.302;-121.982;2023-02-13T04:19:32;100602.0;;;21.82;35.30
48530;BME280;34927;37.302;-121.982;2023-02-13T04:20:37;100603.0;;;21.69;35.43
48530;BME280;34927;37.302;-121.982;2023-02-13T04:21:42;100605.0;;;21.72;35.47
48530;BME280;34927;37.302;-121.982;2023-02-13T04:22:47;100604.0;;;21.78;35.35
48530;BME280;34927;37.302;-121.982;2023-02-13T04:23:51;100604.0;;;21.71;35.45
48530;BME280;34927;37.302;-121.982;2023-02-13T04:24:57;100603.0;;;21.64;35.55
48530;BME280;34927;37.302;-121.982;2023-02-13T04:26:04;100603.0;;;21.76;35.35
48530;BME280;34927;37.302;-121.982;2023-02-13T04:27:13;100601.0;;;21.68;35.47
48530;BME280;34927;37.302;-121.982;2023-02-13T04:28:17;100599.0;;;21.70;35.46
48530;BME280;34927;37.302;-121.982;2023-02-13T04:29:22;100602.0;;;21.73;35.38
48530;BME280;34927;37.302;-121.982;2023-02-13T04:30:26;100600.0;;;21.70;35.48
48530;BME280;34927;37.302;-121.982;2023-02-13T04:31:32;100601.0;;;21.57;35.68
48530;BME280;34927;37.302;-121.982;2023-02-13T04:32:36;100599.0;;;21.68;35.87
48530;BME280;34927;37.302;-121.982;2023-02-13T04:33:42;100594.0;;;21.64;35.95
48530;BME280;34927;37.302;-121.982;2023-02-13T04:34:47;100592.0;;;21.65;35.90
48530;BME280;34927;37.302;-121.982;2023-02-13T04:35:51;100590.0;;;21.63;35.87
48530;BME280;34927;37.302;-121.982;2023-02-13T04:36:57;100592.0;;;21.66;35.87
48530;BME280;34927;37.302;-121.982;2023-02-13T04:38:02;100593.0;;;21.63;35.89
48530;BME280;34927;37.302;-121.982;2023-02-13T04:39:06;100594.0;;;21.56;36.05
48530;BME280;34927;37.302;-121.982;2023-02-13T04:40:12;100592.0;;;21.55;36.05
48530;BME280;34927;37.302;-121.982;2023-02-13T04:41:17;100590.0;;;21.47;36.24
48530;BME280;34927;37.302;-121.982;2023-02-13T04:42:22;100591.0;;;21.50;36.27
48530;BME280;34927;37.302;-121.982;2023-02-13T04:43:27;100590.0;;;21.42;36.43
48530;BME280;34927;37.302;-121.982;2023-02-13T04:44:32;100592.0;;;21.35;36.62
48530;BME280;34927;37.302;-121.982;2023-02-13T04:45:37;100593.0;;;21.46;36.43
48530;BME280;34927;37.302;-121.982;2023-02-13T04:46:42;100594.0;;;21.51;36.44
48530;BME280;34927;37.302;-121.982;2023-02-13T04:47:50;100593.0;;;21.11;37.40
48530;BME280;34927;37.302;-121.982;2023-02-13T04:48:56;100589.0;;;21.26;37.09
48530;BME280;34927;37.302;-121.982;2023-02-13T04:50:02;100589.0;;;21.23;37.20
48530;BME280;34927;37.302;-121.982;2023-02-13T04:51:06;100590.0;;;21.27;37.01
48530;BME280;34927;37.302;-121.982;2023-02-13T04:52:12;100591.0;;;21.33;37.08
48530;BME280;34927;37.302;-121.982;2023-02-13T04:53:16;100591.0;;;21.24;37.25
48530;BME280;34927;37.302;-121.982;2023-02-13T04:54:22;100591.0;;;21.25;37.15
48530;BME280;34927;37.302;-121.982;2023-02-13T04:55:27;100589.0;;;21.21;37.24
48530;BME280;34927;37.302;-121.982;2023-02-13T04:56:32;100589.0;;;21.20;37.26
48530;BME280;34927;37.302;-121.982;2023-02-13T04:57:37;100592.0;;;21.16;37.32
48530;BME280;34927;37.302;-121.982;2023-02-13T04:58:41;100591.0;;;21.15;37.24
48530;BME280;34927;37.302;-121.982;2023-02-13T04:59:47;100589.0;;;21.07;37.37
48530;BME280;34927;37.302;-121.982;2023-02-13T05:00:52;100589.0;;;21.05;37.40
48530;BME280;34927;37.302;-121.982;2023-02-13T05:01:56;100589.0;;;21.09;37.30
48530;BME280;34927;37.302;-121.982;2023-02-13T05:03:05;100588.0;;;21.25;37.28
48530;BME280;34927;37.302;-121.982;2023-02-13T05:04:12;100590.0;;;21.23;37.08
48530;BME280;34927;37.302;-121.982;2023-02-13T05:05:16;100589.0;;;21.34;36.75
48530;BME280;34927;37.302;-121.982;2023-02-13T05:06:22;100587.0;;;21.30;36.81
48530;BME280;34927;37.302;-121.982;2023-02-13T05:07:26;100590.0;;;21.22;37.04
48530;BME280;34927;37.302;-121.982;2023-02-13T05:08:32;100592.0;;;21.20;37.16
48530;BME280;34927;37.302;-121.982;2023-02-13T05:09:37;100589.0;;;21.10;37.09
48530;BME280;34927;37.302;-121.982;2023-02-13T05:10:42;100591.0;;;21.11;37.14
48530;BME280;34927;37.302;-121.982;2023-02-13T05:11:51;100589.0;;;21.36;36.85
48530;BME280;34927;37.302;-121.982;2023-02-13T05:12:57;100591.0;;;21.21;37.00
48530;BME280;34927;37.302;-121.982;2023-02-13T05:14:02;100594.0;;;21.13;37.14
48530;BME280;34927;37.302;-121.982;2023-02-13T05:15:07;100595.0;;;21.13;37.06
48530;BME280;34927;37.302;-121.982;2023-02-13T05:16:12;100593.0;;;21.08;37.15
48530;BME280;34927;37.302;-121.982;2023-02-13T05:17:16;100595.0;;;21.00;37.31
48530;BME280;34927;37.302;-121.982;2023-02-13T05:18:21;100596.0;;;21.09;37.17
48530;BME280;34927;37.302;-121.982;2023-02-13T05:19:27;100596.0;;;21.12;37.00
48530;BME280;34927;37.302;-121.982;2023-02-13T05:20:31;100598.0;;;21.09;37.12
48530;BME280;34927;37.302;-121.982;2023-02-13T05:21:37;100602.0;;;21.04;37.19
48530;BME280;34927;37.302;-121.982;2023-02-13T05:22:44;100599.0;;;21.01;37.14
48530;BME280;34927;37.302;-121.982;2023-02-13T05:23:47;100597.0;;;21.03;37.10
48530;BME280;34927;37.302;-121.982;2023-02-13T05:24:51;100597.0;;;21.16;36.80
48530;BME280;34927;37.302;-121.982;2023-02-13T05:25:57;100596.0;;;21.10;36.85
48530;BME280;34927;37.302;-121.982;2023-02-13T05:27:02;100597.0;;;21.13;36.76
48530;BME280;34927;37.302;-121.982;2023-02-13T05:28:07;100596.0;;;21.21;36.63
48530;BME280;34927;37.302;-121.982;2023-02-13T05:29:12;100593.0;;;21.04;36.75
48530;BME280;34927;37.302;-121.982;2023-02-13T05:30:16;100594.0;;;20.93;36.99
48530;BME280;34927;37.302;-121.982;2023-02-13T05:31:22;100593.0;;;21.00;36.97
48530;BME280;34927;37.302;-121.982;2023-02-13T05:32:27;100595.0;;;21.07;36.78
48530;BME280;34927;37.302;-121.982;2023-02-13T05:33:32;100595.0;;;21.11;36.68
48530;BME280;34927;37.302;-121.982;2023-02-13T05:34:36;100593.0;;;20.95;36.95
48530;BME280;34927;37.302;-121.982;2023-02-13T05:35:42;100593.0;;;21.00;36.70
48530;BME280;34927;37.302;-121.982;2023-02-13T05:36:47;100593.0;;;21.09;36.48
48530;BME280;34927;37.302;-121.982;2023-02-13T05:37:51;100594.0;;;21.19;36.30
48530;BME280;34927;37.302;-121.982;2023-02-13T05:38:57;100593.0;;;21.10;36.35
48530;BME280;34927;37.302;-121.982;2023-02-13T05:40:02;100595.0;;;21.15;36.19
48530;BME280;34927;37.302;-121.982;2023-02-13T05:41:07;100596.0;;;21.08;36.34
48530;BME280;34927;37.302;-121.982;2023-02-13T05:42:12;100595.0;;;21.16;36.10
48530;BME280;34927;37.302;-121.982;2023-02-13T05:43:17;100592.0;;;21.15;36.12
48530;BME280;34927;37.302;-121.982;2023-02-13T05:44:22;100593.0;;;21.11;36.23
48530;BME280;34927;37.302;-121.982;2023-02-13T05:45:26;100590.0;;;20.86;36.59
48530;BME280;34927;37.302;-121.982;2023-02-13T05:46:32;100593.0;;;20.89;36.50
48530;BME280;34927;37.302;-121.982;2023-02-13T05:47:36;100592.0;;;21.05;36.23
48530;BME280;34927;37.302;-121.982;2023-02-13T05:48:42;100589.0;;;20.88;36.63
48530;BME280;34927;37.302;-121.982;2023-02-13T05:49:47;100588.0;;;20.92;36.44
48530;BME280;34927;37.302;-121.982;2023-02-13T05:50:52;100589.0;;;20.95;36.45